createdAt,value
2022-08-08T00:00:53.877Z,4.60
2022-08-08T00:02:49.311Z,7.07
2022-08-08T00:05:44.084Z,4.70
2022-08-08T00:08:37.616Z,4.63
2022-08-08T00:12:03.292Z,4.65
2022-08-08T00:15:01.029Z,4.25
2022-08-08T00:18:03.320Z,5.15
2022-08-08T00:20:50.465Z,4.13
2022-08-08T00:23:28.435Z,4.30
2022-08-08T00:26:13.004Z,5.93
2022-08-08T00:28:48.893Z,7.32
2022-08-08T00:32:20.614Z,4.90
2022-08-08T00:34:49.057Z,4.35
2022-08-08T00:37:47.692Z,4.97
2022-08-08T00:41:12.596Z,4.95
2022-08-08T00:43:40.913Z,7.28
2022-08-08T00:46:57.120Z,4.35
2022-08-08T00:49:58.750Z,6.18
2022-08-08T00:53:06.999Z,5.20
2022-08-08T00:56:20.245Z,6.65
2022-08-08T00:59:43.095Z,5.57
2022-08-08T01:03:57.338Z,7.45
2022-08-08T01:05:58.644Z,5.80
2022-08-08T01:08:33.195Z,5.40
2022-08-08T01:11:37.761Z,3.88
2022-08-08T01:14:17.692Z,5.43
2022-08-08T01:17:07.464Z,9.93
2022-08-08T01:20:03.254Z,7.85
2022-08-08T01:22:55.698Z,5.05
2022-08-08T01:25:49.169Z,6.82
2022-08-08T01:28:44.933Z,6.97
2022-08-08T01:32:02.781Z,5.43
2022-08-08T01:34:12.569Z,5.40
2022-08-08T01:37:57.449Z,6.78
2022-08-08T01:40:28.260Z,5.68
2022-08-08T01:43:21.011Z,6.03
2022-08-08T01:46:24.374Z,5.25
2022-08-08T01:49:23.222Z,4.80
2022-08-08T01:52:51.765Z,8.02
2022-08-08T01:55:44.891Z,5.78
2022-08-08T01:58:39.527Z,7.55
2022-08-08T02:01:54.738Z,5.80
2022-08-08T02:04:46.074Z,6.53
2022-08-08T02:07:41.496Z,7.65
2022-08-08T02:10:46.431Z,6.63
2022-08-08T02:13:54.060Z,6.15
2022-08-08T02:16:54.600Z,7.07
2022-08-08T02:19:57.818Z,7.87
2022-08-08T02:22:34.085Z,5.65
2022-08-08T02:25:32.792Z,7.50
2022-08-08T02:28:40.165Z,8.25
2022-08-08T02:31:54.187Z,5.40
2022-08-08T02:34:49.813Z,5.57
2022-08-08T02:37:59.181Z,5.57
2022-08-08T02:40:45.067Z,5.35
2022-08-08T02:46:27.857Z,5.30
2022-08-08T02:49:04.811Z,5.55
2022-08-08T02:52:07.309Z,5.18
2022-08-08T02:55:31.936Z,7.28
2022-08-08T02:58:22.951Z,6.50
2022-08-08T03:01:21.710Z,4.93
2022-08-08T03:05:02.949Z,9.23
2022-08-08T03:07:24.801Z,6.60
2022-08-08T03:10:03.757Z,5.47
2022-08-08T03:13:02.310Z,5.43
2022-08-08T03:15:58.111Z,5.97
2022-08-08T03:18:53.189Z,4.47
2022-08-08T03:21:20.103Z,4.65
2022-08-08T03:24:06.808Z,5.65
2022-08-08T03:26:42.680Z,5.00
2022-08-08T03:29:18.563Z,4.53
2022-08-08T03:32:12.541Z,4.90
2022-08-08T03:34:41.191Z,4.45
2022-08-08T03:37:58.973Z,4.50
2022-08-08T03:40:03.620Z,7.40
2022-08-08T03:42:31.366Z,6.50
2022-08-08T03:44:58.695Z,5.78
2022-08-08T03:47:39.417Z,8.07
2022-08-08T03:50:20.248Z,6.30
2022-08-08T03:52:51.926Z,7.65
2022-08-08T03:55:58.049Z,9.95
2022-08-08T03:58:34.408Z,6.32
2022-08-08T04:01:23.046Z,6.20
2022-08-08T04:03:57.789Z,6.15
2022-08-08T04:06:29.385Z,6.40
2022-08-08T04:08:57.949Z,6.80
2022-08-08T04:11:25.557Z,7.72
2022-08-08T04:14:03.987Z,6.82
2022-08-08T04:16:41.393Z,7.45
2022-08-08T04:19:23.715Z,6.65
2022-08-08T04:21:54.653Z,8.07
2022-08-08T04:24:28.583Z,7.90
2022-08-08T04:26:59.171Z,6.63
2022-08-08T04:29:27.456Z,6.78
2022-08-08T04:32:00.802Z,6.72
2022-08-08T04:34:31.975Z,6.78
2022-08-08T04:37:10.171Z,6.25
2022-08-08T04:40:05.763Z,7.53
2022-08-08T04:42:28.683Z,6.65
2022-08-08T04:44:57.802Z,6.40
2022-08-08T04:47:26.120Z,7.13
2022-08-08T04:50:01.304Z,5.95
2022-08-08T04:52:34.114Z,7.18
2022-08-08T04:55:02.363Z,6.22
2022-08-08T04:57:31.984Z,9.50
2022-08-08T05:00:02.230Z,8.68
2022-08-08T05:02:31.120Z,6.85
2022-08-08T05:04:59.564Z,9.07
2022-08-08T05:07:37.977Z,7.95
2022-08-08T05:10:12.821Z,6.38
2022-08-08T05:12:53.395Z,8.73
2022-08-08T05:16:48.116Z,8.55
2022-08-08T05:18:15.290Z,10.38
2022-08-08T05:20:50.251Z,8.45
2022-08-08T05:23:20.491Z,8.93
2022-08-08T05:25:49.562Z,6.90
2022-08-08T05:28:27.972Z,9.13
2022-08-08T05:31:19.455Z,6.43
2022-08-08T05:33:51.389Z,6.65
2022-08-08T05:36:23.209Z,7.78
2022-08-08T05:38:53.596Z,7.35
2022-08-08T05:41:25.321Z,9.13
2022-08-08T05:44:04.943Z,7.63
2022-08-08T05:46:33.304Z,7.60
2022-08-08T05:49:01.509Z,6.80
2022-08-08T05:51:48.918Z,6.85
2022-08-08T05:57:05.840Z,8.20
2022-08-08T05:59:59.551Z,7.45
2022-08-08T06:02:44.123Z,7.45
2022-08-08T06:05:34.671Z,8.02
2022-08-08T06:08:09.357Z,10.45
2022-08-08T06:10:40.734Z,7.82
2022-08-08T06:13:09.655Z,7.57
2022-08-08T06:15:51.106Z,6.70
2022-08-08T06:18:22.734Z,7.93
2022-08-08T06:20:54.620Z,8.63
2022-08-08T06:23:53.396Z,7.75
2022-08-08T06:26:38.886Z,6.78
2022-08-08T06:29:48.810Z,6.72
2022-08-08T06:32:11.240Z,10.25
2022-08-08T06:34:56.424Z,7.63
2022-08-08T06:37:37.995Z,7.38
2022-08-08T06:40:15.985Z,7.72
2022-08-08T06:42:52.168Z,6.28
2022-08-08T06:45:23.293Z,10.05
2022-08-08T06:47:52.151Z,7.18
2022-08-08T06:50:32.461Z,5.25
2022-08-08T06:53:13.942Z,9.82
2022-08-08T06:55:47.454Z,6.78
2022-08-08T06:58:30.702Z,5.25
2022-08-08T07:01:01.609Z,8.45
2022-08-08T07:04:40.449Z,5.75
2022-08-08T07:06:56.633Z,4.20
2022-08-08T07:09:41.757Z,4.35
2022-08-08T07:12:38.389Z,5.15
2022-08-08T07:15:23.058Z,3.88
2022-08-08T07:18:34.537Z,4.07
2022-08-08T07:20:50.806Z,5.80
2022-08-08T07:23:28.377Z,5.20
2022-08-08T07:26:17.627Z,3.97
2022-08-08T07:28:50.996Z,5.38
2022-08-08T07:31:24.242Z,3.50
2022-08-08T07:33:53.820Z,3.65
2022-08-08T07:36:26.440Z,4.22
2022-08-08T07:38:53.781Z,3.70
2022-08-08T07:41:24.822Z,3.67
2022-08-08T07:43:55.093Z,5.18
2022-08-08T07:46:29.055Z,3.42
2022-08-08T07:48:57.758Z,4.95
2022-08-08T07:51:45.567Z,4.05
2022-08-08T07:54:34.999Z,3.63
2022-08-08T07:57:48.564Z,3.97
2022-08-08T08:00:17.387Z,2.72
2022-08-08T08:02:55.269Z,3.88
2022-08-08T08:05:33.271Z,3.92
2022-08-08T08:08:07.149Z,2.88
2022-08-08T08:10:36.402Z,3.33
2022-08-08T08:13:25.296Z,4.78
2022-08-08T08:16:05.812Z,4.82
2022-08-08T08:18:52.085Z,4.25
2022-08-08T08:21:44.226Z,3.65
2022-08-08T08:24:14.590Z,3.03
2022-08-08T08:26:46.946Z,4.43
2022-08-08T08:29:19.727Z,4.43
2022-08-08T08:31:57.890Z,3.67
2022-08-08T08:34:32.300Z,2.63
2022-08-08T08:37:07.829Z,4.07
2022-08-08T08:40:00.440Z,2.20
2022-08-08T08:42:29.301Z,3.97
2022-08-08T08:45:10.179Z,5.13
2022-08-08T08:47:53.372Z,6.63
2022-08-08T08:50:31.957Z,2.15
2022-08-08T08:53:54.482Z,4.53
2022-08-08T08:56:01.927Z,2.75
2022-08-08T08:58:46.519Z,3.15
2022-08-08T09:01:19.791Z,3.08
2022-08-08T09:03:50.950Z,3.80
2022-08-08T09:06:28.399Z,1.92
2022-08-08T09:09:26.707Z,4.03
2022-08-08T09:12:01.992Z,3.08
2022-08-08T09:14:34.034Z,2.67
2022-08-08T09:17:09.705Z,3.17
2022-08-08T09:21:57.827Z,2.58
2022-08-08T09:22:27.978Z,3.50
2022-08-08T09:24:56.195Z,3.03
2022-08-08T09:27:57.723Z,2.55
2022-08-08T09:30:17.370Z,4.88
2022-08-08T09:33:54.912Z,3.20
2022-08-08T09:35:49.253Z,3.60
2022-08-08T09:38:52.927Z,2.42
2022-08-08T09:41:28.621Z,1.83
2022-08-08T09:44:12.983Z,3.20
2022-08-08T09:46:45.130Z,3.30
2022-08-08T09:49:49.550Z,2.22
2022-08-08T09:52:16.156Z,1.92
2022-08-08T09:54:58.729Z,3.05
2022-08-08T09:57:46.202Z,1.40
2022-08-08T10:00:49.851Z,2.65
2022-08-08T10:03:04.875Z,1.83
2022-08-08T10:05:37.747Z,1.50
2022-08-08T10:08:09.828Z,2.05
2022-08-08T10:10:37.922Z,4.00
2022-08-08T10:13:17.099Z,3.63
2022-08-08T10:16:00.277Z,3.15
2022-08-08T10:18:36.660Z,4.07
2022-08-08T10:21:26.070Z,4.00
2022-08-08T10:24:03.362Z,1.73
2022-08-08T10:26:52.482Z,7.15
2022-08-08T10:29:59.067Z,5.50
2022-08-08T10:32:48.289Z,2.83
2022-08-08T10:36:08.837Z,2.92
2022-08-08T10:38:13.517Z,2.47
2022-08-08T10:40:42.544Z,5.07
2022-08-08T10:43:10.421Z,2.10
2022-08-08T10:45:56.881Z,2.47
2022-08-08T10:48:56.626Z,2.10
2022-08-08T10:51:26.095Z,3.50
2022-08-08T10:53:57.282Z,2.03
2022-08-08T10:56:27.648Z,4.45
2022-08-08T10:59:12.252Z,2.10
2022-08-08T11:01:46.556Z,2.40
2022-08-08T11:07:05.687Z,2.47
2022-08-08T11:09:34.632Z,3.92
2022-08-08T11:12:13.277Z,3.20
2022-08-08T11:14:55.609Z,2.15
2022-08-08T11:18:00.915Z,3.35
2022-08-08T11:20:27.555Z,3.53
2022-08-08T11:23:00.579Z,2.35
2022-08-08T11:25:53.631Z,4.90
2022-08-08T11:28:29.785Z,2.33
2022-08-08T11:31:00.973Z,3.08
2022-08-08T11:33:53.359Z,4.10
2022-08-08T11:36:29.260Z,2.85
2022-08-08T11:38:57.083Z,2.00
2022-08-08T11:41:28.274Z,5.28
2022-08-08T11:44:01.676Z,3.53
2022-08-08T11:46:30.501Z,1.42
2022-08-08T11:49:00.361Z,2.92
2022-08-08T11:51:38.267Z,3.97
2022-08-08T11:54:27.035Z,3.53
2022-08-08T11:56:57.874Z,2.28
2022-08-08T12:00:00.614Z,2.05
2022-08-08T12:02:36.936Z,1.13
2022-08-08T12:05:12.591Z,2.33
2022-08-08T12:07:54.095Z,2.25
2022-08-08T12:10:28.178Z,2.55
2022-08-08T12:13:14.283Z,2.88
2022-08-08T12:15:49.298Z,3.55
2022-08-08T12:18:26.749Z,2.28
2022-08-08T12:20:56.423Z,3.75
2022-08-08T12:23:42.909Z,1.95
2022-08-08T12:26:27.760Z,2.50
2022-08-08T12:29:25.795Z,3.28
2022-08-08T12:32:17.306Z,2.45
2022-08-08T12:34:52.931Z,1.65
2022-08-08T12:37:41.284Z,1.35
2022-08-08T12:40:22.753Z,1.35
2022-08-08T12:42:52.352Z,5.13
2022-08-08T12:45:58.995Z,2.33
2022-08-08T12:48:35.678Z,2.25
2022-08-08T12:51:03.071Z,4.03
2022-08-08T12:53:36.517Z,6.85
2022-08-08T12:56:18.875Z,4.43
2022-08-08T12:58:54.519Z,4.22
2022-08-08T13:01:37.367Z,3.00
2022-08-08T13:04:24.422Z,6.78
2022-08-08T13:06:53.220Z,4.80
2022-08-08T13:09:34.118Z,2.67
2022-08-08T13:12:34.349Z,2.03
2022-08-08T13:15:04.336Z,2.55
2022-08-08T13:18:08.901Z,1.77
2022-08-08T13:20:21.733Z,3.60
2022-08-08T13:22:48.871Z,4.03
2022-08-08T13:25:22.051Z,1.83
2022-08-08T13:27:54.561Z,3.08
2022-08-08T13:30:28.522Z,2.72
2022-08-08T13:32:59.551Z,4.28
2022-08-08T13:35:29.548Z,2.97
2022-08-08T13:38:08.358Z,2.22
2022-08-08T13:40:41.644Z,2.28
2022-08-08T13:43:13.278Z,2.75
2022-08-08T13:45:40.963Z,2.00
2022-08-08T13:48:16.552Z,1.52
2022-08-08T13:50:52.517Z,3.38
2022-08-08T13:53:34.041Z,1.10
2022-08-08T13:56:06.994Z,2.67
2022-08-08T13:58:56.191Z,3.72
2022-08-08T14:01:32.965Z,2.60
2022-08-08T14:04:24.290Z,1.63
2022-08-08T14:07:00.117Z,4.10
2022-08-08T14:10:02.543Z,1.02
2022-08-08T14:12:19.456Z,2.03
2022-08-08T14:14:47.390Z,1.40
2022-08-08T14:17:22.767Z,2.65
2022-08-08T14:20:14.855Z,1.20
2022-08-08T14:22:54.567Z,2.03
2022-08-08T14:25:22.686Z,3.97
2022-08-08T14:28:00.274Z,2.30
2022-08-08T14:30:36.026Z,2.05
2022-08-08T14:33:12.601Z,4.70
2022-08-08T14:35:43.113Z,1.85
2022-08-08T14:38:33.858Z,2.97
2022-08-08T14:40:59.920Z,1.58
2022-08-08T14:44:01.759Z,1.38
2022-08-08T14:46:31.130Z,3.28
2022-08-08T14:49:20.639Z,3.05
2022-08-08T14:52:08.151Z,0.80
2022-08-08T14:54:46.568Z,1.42
2022-08-08T14:57:16.397Z,3.72
2022-08-08T14:59:50.705Z,1.23
2022-08-08T15:02:30.672Z,2.97
2022-08-08T15:05:11.421Z,1.38
2022-08-08T15:07:40.235Z,3.13
2022-08-08T15:10:09.324Z,1.13
2022-08-08T15:12:37.136Z,2.03
2022-08-08T15:15:06.909Z,1.02
2022-08-08T15:17:37.752Z,1.00
2022-08-08T15:20:12.459Z,3.63
2022-08-08T15:22:42.590Z,2.70
2022-08-08T15:25:17.576Z,1.38
2022-08-08T15:28:04.232Z,2.58
2022-08-08T15:30:45.871Z,2.65
2022-08-08T15:33:20.816Z,1.70
2022-08-08T15:36:02.426Z,1.23
2022-08-08T15:38:29.584Z,3.45
2022-08-08T15:40:57.410Z,4.13
2022-08-08T15:43:34.976Z,1.48
2022-08-08T15:46:03.556Z,0.85
2022-08-08T15:48:30.946Z,0.85
2022-08-08T15:51:06.523Z,1.33
2022-08-08T15:53:49.376Z,3.22
2022-08-08T15:56:19.677Z,1.58
2022-08-08T15:58:48.486Z,4.57
2022-08-08T16:01:17.017Z,3.35
2022-08-08T16:03:46.084Z,2.83
2022-08-08T16:06:28.491Z,1.88
2022-08-08T16:12:59.958Z,0.95
2022-08-08T16:13:21.203Z,2.90
2022-08-08T16:14:32.624Z,1.13
2022-08-08T16:17:01.944Z,3.72
2022-08-08T16:19:30.098Z,2.10
2022-08-08T16:21:58.276Z,1.70
2022-08-08T16:24:24.994Z,3.28
2022-08-08T16:26:52.041Z,2.75
2022-08-08T16:29:37.079Z,1.05
2022-08-08T16:32:12.901Z,4.50
2022-08-08T16:34:40.973Z,1.67
2022-08-08T16:37:08.033Z,3.90
2022-08-08T16:40:00.431Z,0.63
2022-08-08T16:42:25.055Z,1.52
2022-08-08T16:44:54.902Z,3.88
2022-08-08T16:47:40.703Z,2.03
2022-08-08T16:50:14.183Z,1.80
2022-08-08T16:55:01.177Z,1.08
2022-08-08T16:55:55.119Z,4.63
2022-08-08T16:58:25.692Z,1.92
2022-08-08T17:00:54.598Z,1.20
2022-08-08T17:03:24.950Z,2.45
2022-08-08T17:06:01.891Z,1.60
2022-08-08T17:08:29.182Z,1.05
2022-08-08T17:10:58.741Z,3.30
2022-08-08T17:13:50.246Z,2.65
2022-08-08T17:16:25.119Z,1.40
2022-08-08T17:18:55.337Z,3.28
2022-08-08T17:21:22.913Z,2.05
2022-08-08T17:24:00.731Z,1.15
2022-08-08T17:26:30.221Z,2.40
2022-08-08T17:29:03.973Z,2.25
2022-08-08T17:31:45.067Z,2.28
2022-08-08T17:34:36.855Z,2.03
2022-08-08T17:37:03.728Z,2.20
2022-08-08T17:40:04.266Z,2.63
2022-08-08T17:42:21.161Z,3.33
2022-08-08T17:44:52.292Z,2.72
2022-08-08T17:47:37.526Z,2.85
2022-08-08T17:50:07.253Z,1.42
2022-08-08T17:52:35.267Z,2.88
2022-08-08T17:55:05.719Z,1.25
2022-08-08T17:57:50.889Z,2.65
2022-08-08T18:00:19.760Z,1.73
2022-08-08T18:02:52.519Z,1.95
2022-08-08T18:05:49.586Z,1.67
2022-08-08T18:08:38.033Z,2.05
2022-08-08T18:11:17.400Z,2.35
2022-08-08T18:13:47.910Z,2.38
2022-08-08T18:16:17.102Z,2.20
2022-08-08T18:18:53.286Z,1.10
2022-08-08T18:21:59.805Z,2.05
2022-08-08T18:24:18.957Z,9.32
2022-08-08T18:26:54.692Z,2.25
2022-08-08T18:29:33.492Z,2.70
2022-08-08T18:32:04.356Z,2.88
2022-08-08T18:37:06.398Z,1.83
2022-08-08T18:39:36.391Z,2.97
2022-08-08T18:42:04.599Z,3.42
2022-08-08T18:44:34.503Z,2.05
2022-08-08T18:47:02.690Z,2.15
2022-08-08T18:49:32.456Z,5.60
2022-08-08T18:52:22.101Z,4.25
2022-08-08T18:54:59.398Z,2.92
2022-08-08T18:57:29.391Z,2.70
2022-08-08T19:00:15.447Z,1.92
2022-08-08T19:02:48.394Z,3.72
2022-08-08T19:05:32.444Z,5.93
2022-08-08T19:08:25.429Z,2.38
2022-08-08T19:11:01.789Z,3.60
2022-08-08T19:13:38.369Z,3.78
2022-08-08T19:16:18.938Z,8.77
2022-08-08T19:18:53.077Z,3.22
2022-08-08T19:21:30.291Z,4.68
2022-08-08T19:24:00.291Z,2.75
2022-08-08T19:26:30.915Z,4.55
2022-08-08T19:29:01.755Z,6.00
2022-08-08T19:31:31.317Z,1.42
2022-08-08T19:34:15.177Z,4.68
2022-08-08T19:36:51.988Z,2.63
2022-08-08T19:39:19.453Z,2.40
2022-08-08T19:41:49.874Z,2.28
2022-08-08T19:44:26.732Z,4.70
2022-08-08T19:47:01.650Z,6.28
2022-08-08T19:49:37.791Z,3.67
2022-08-08T19:52:06.317Z,1.92
2022-08-08T19:54:34.211Z,5.60
2022-08-08T19:57:04.312Z,4.30
2022-08-08T19:59:35.550Z,2.22
2022-08-08T20:02:04.736Z,2.40
2022-08-08T20:04:33.550Z,3.33
2022-08-08T20:07:05.194Z,4.60
2022-08-08T20:09:56.606Z,2.92
2022-08-08T20:12:31.998Z,4.88
2022-08-08T20:15:14.156Z,2.03
2022-08-08T20:17:43.242Z,3.17
2022-08-08T20:20:19.227Z,2.40
2022-08-08T20:22:48.803Z,2.72
2022-08-08T20:25:20.700Z,3.92
2022-08-08T20:27:49.351Z,3.40
2022-08-08T20:30:53.333Z,3.25
2022-08-08T20:33:18.500Z,3.97
2022-08-08T20:35:57.897Z,5.45
2022-08-08T20:38:32.641Z,3.08
2022-08-08T20:41:05.999Z,4.40
2022-08-08T20:43:48.142Z,5.20
2022-08-08T20:46:16.218Z,2.72
2022-08-08T20:48:44.252Z,6.72
2022-08-08T20:51:11.310Z,3.22
2022-08-08T20:56:35.949Z,3.42
2022-08-08T20:59:16.145Z,4.72
2022-08-08T21:02:06.798Z,4.15
2022-08-08T21:04:36.650Z,5.43
2022-08-08T21:07:08.030Z,4.95
2022-08-08T21:10:02.385Z,7.10
2022-08-08T21:12:24.903Z,3.97
2022-08-08T21:15:06.626Z,4.47
2022-08-08T21:17:35.439Z,3.40
2022-08-08T21:20:04.539Z,3.73
2022-08-08T21:22:31.380Z,4.82
2022-08-08T21:24:58.524Z,5.60
2022-08-08T21:28:06.217Z,4.05
2022-08-08T21:30:18.826Z,5.68
2022-08-08T21:32:51.842Z,7.07
2022-08-08T21:36:18.098Z,8.65
2022-08-08T21:38:17.176Z,6.03
2022-08-08T21:40:55.691Z,4.47
2022-08-08T21:43:34.135Z,5.85
2022-08-08T21:48:06.690Z,5.13
2022-08-08T21:48:57.239Z,4.85
2022-08-08T21:54:16.871Z,4.63
2022-08-08T21:54:33.967Z,3.83
2022-08-08T21:57:03.320Z,7.57
2022-08-08T22:00:01.699Z,6.78
2022-08-08T22:02:23.511Z,5.03
2022-08-08T22:04:56.044Z,4.57
2022-08-08T22:07:34.824Z,5.05
2022-08-08T22:10:18.544Z,6.57
2022-08-08T22:13:16.591Z,4.30
2022-08-08T22:15:43.945Z,4.95
2022-08-08T22:18:27.444Z,3.97
2022-08-08T22:20:56.053Z,6.43
2022-08-08T22:23:29.719Z,4.82
2022-08-08T22:26:27.036Z,5.43
2022-08-08T22:29:13.255Z,5.22
2022-08-08T22:31:35.221Z,4.95
2022-08-08T22:34:13.390Z,5.03
2022-08-08T22:36:42.947Z,5.78
2022-08-08T22:39:11.873Z,4.55
2022-08-08T22:41:46.697Z,4.70
2022-08-08T22:44:16.408Z,5.07
2022-08-08T22:46:45.645Z,5.43
2022-08-08T22:49:12.796Z,6.90
2022-08-08T22:51:47.305Z,4.75
2022-08-08T22:54:30.073Z,6.75
2022-08-08T22:57:11.462Z,6.68
2022-08-08T22:59:52.937Z,5.28
2022-08-08T23:02:29.208Z,7.00
2022-08-08T23:04:56.251Z,5.57
2022-08-08T23:07:51.252Z,6.13
2022-08-08T23:10:19.674Z,5.45
2022-08-08T23:12:51.711Z,5.57
2022-08-08T23:16:39.725Z,11.93
2022-08-08T23:18:11.708Z,4.70
2022-08-08T23:20:43.674Z,5.57
2022-08-08T23:23:12.071Z,4.97
2022-08-08T23:25:47.955Z,5.28
2022-08-08T23:28:15.893Z,6.85
2022-08-08T23:30:45.041Z,5.40
2022-08-08T23:33:19.128Z,6.05
2022-08-08T23:36:07.007Z,6.03
2022-08-08T23:38:36.706Z,7.55
2022-08-08T23:41:17.356Z,4.97
2022-08-08T23:43:54.373Z,6.15
2022-08-08T23:49:07.544Z,5.47
2022-08-08T23:49:15.581Z,6.00
2022-08-08T23:52:04.647Z,5.78
2022-08-08T23:54:43.338Z,5.78
2022-08-08T23:57:26.639Z,9.15
